Time;durP1;ratioP1;P1;durP2;ratioP2;P2;SDS_P1;SDS_P2;PMS_P1;PMS_P2;Temp;Humidity;BMP_temperature;BMP_pressure;BME280_temperature;BME280_humidity;BME280_pressure;Samples;Min_cycle;Max_cycle;Signal;HPM_P1;HPM_P2
2021/08/11 00:01:06;;;;;;;9.97;6.97;;;;;;;18.60;82.01;98973.39;124866;1093;64271;-82
2021/08/11 00:03:33;;;;;;;8.30;7.40;;;;;;;18.63;81.59;98987.42;124930;1093;64264;-82
2021/08/11 00:06:00;;;;;;;10.80;8.40;;;;;;;18.61;81.84;99000.22;124862;1093;64539;-82
2021/08/11 00:08:26;;;;;;;9.93;9.03;;;;;;;18.56;81.97;99012.48;124898;1091;64184;-82
2021/08/11 00:10:53;;;;;;;12.03;8.30;;;;;;;18.46;82.13;99017.97;124884;1093;64351;-82
2021/08/11 00:13:19;;;;;;;11.37;8.13;;;;;;;18.45;82.81;99037.84;124875;1093;64217;-82
2021/08/11 00:15:46;;;;;;;8.73;7.13;;;;;;;18.43;83.02;99059.59;124874;1093;64366;-82
2021/08/11 00:18:14;;;;;;;7.67;6.97;;;;;;;18.39;83.92;99076.23;124981;1092;64441;-82
2021/08/11 00:20:41;;;;;;;7.57;6.77;;;;;;;18.37;83.66;99054.78;124905;1093;64443;-82
2021/08/11 00:23:07;;;;;;;10.80;7.15;;;;;;;18.37;83.32;99043.15;124864;1092;64287;-82
2021/08/11 00:25:34;;;;;;;8.80;6.47;;;;;;;18.38;83.46;99026.82;124906;1093;64390;-82
2021/08/11 00:28:00;;;;;;;8.73;7.03;;;;;;;18.38;83.29;99017.88;124908;1093;64306;-80
2021/08/11 00:30:27;;;;;;;8.27;7.20;;;;;;;18.32;83.16;99007.67;124878;1093;64264;-80
2021/08/11 00:32:54;;;;;;;8.85;6.20;;;;;;;18.29;83.27;99003.43;124889;1093;64347;-80
2021/08/11 00:35:20;;;;;;;9.33;6.67;;;;;;;18.28;83.22;98998.20;124912;1093;64251;-80
2021/08/11 00:37:47;;;;;;;8.63;6.60;;;;;;;18.27;83.23;99002.73;124861;1093;64241;-82
2021/08/11 00:40:15;;;;;;;9.43;7.20;;;;;;;18.29;83.50;99016.92;124903;1093;64303;-82
2021/08/11 00:42:41;;;;;;;8.70;7.55;;;;;;;18.27;83.36;99007.28;124909;1093;64268;-82
2021/08/11 00:45:08;;;;;;;8.73;6.50;;;;;;;18.28;83.76;99012.53;124869;1093;64425;-82
2021/08/11 00:47:36;;;;;;;9.90;7.00;;;;;;;18.27;83.64;99009.98;124859;1093;64271;-82
2021/08/11 00:50:05;;;;;;;9.60;6.47;;;;;;;18.29;83.49;99016.92;124909;1093;64282;-81
2021/08/11 00:52:32;;;;;;;9.63;6.73;;;;;;;18.28;83.75;99009.00;124911;1093;64276;-81
2021/08/11 00:55:00;;;;;;;10.23;7.30;;;;;;;18.23;83.71;98995.95;124916;1093;64305;-81
2021/08/11 00:57:28;;;;;;;8.50;7.33;;;;;;;18.21;83.72;98997.95;124987;1093;64676;-81
2021/08/11 00:59:57;;;;;;;9.30;7.10;;;;;;;18.21;83.57;99011.44;124889;1093;64248;-81
2021/08/11 01:02:25;;;;;;;8.53;7.20;;;;;;;18.19;83.53;99000.81;124963;1093;64267;-80
2021/08/11 01:04:53;;;;;;;9.67;7.27;;;;;;;18.17;84.14;98999.27;124917;1093;64268;-81
2021/08/11 01:07:21;;;;;;;8.97;7.10;;;;;;;18.12;83.88;98994.31;124905;1093;64355;-81
2021/08/11 01:09:50;;;;;;;8.50;6.97;;;;;;;18.13;84.30;98992.46;124926;1093;64269;-81
2021/08/11 01:12:17;;;;;;;11.40;7.50;;;;;;;18.12;84.23;98996.17;124949;1093;64344;-80
2021/08/11 01:14:44;;;;;;;8.67;7.77;;;;;;;18.08;83.89;98992.91;124955;1093;64363;-80
2021/08/11 01:17:10;;;;;;;10.10;8.33;;;;;;;18.05;83.99;98998.61;124973;1092;64187;-80
2021/08/11 01:19:38;;;;;;;14.43;9.33;;;;;;;17.98;84.39;99001.07;125239;1093;64772;-80
2021/08/11 01:22:11;;;;;;;15.67;12.57;;;;;;;17.88;84.32;99002.12;125221;1092;64303;-81
2021/08/11 01:25:31;;;;;;;15.13;12.37;;;;;;;17.77;85.04;99000.40;125169;1093;64271;-81
2021/08/11 01:28:19;;;;;;;17.57;10.00;;;;;;;17.66;84.96;98995.20;124642;1096;64446;-81
2021/08/11 01:31:08;;;;;;;9.93;8.03;;;;;;;17.57;85.80;98999.64;124927;1093;64268;-82
2021/08/11 01:33:46;;;;;;;8.77;7.57;;;;;;;17.49;86.30;99003.07;124869;1090;64389;-83
2021/08/11 01:36:21;;;;;;;10.53;7.50;;;;;;;17.42;86.53;98999.25;124911;1093;64273;-82
2021/08/11 01:38:59;;;;;;;11.10;8.10;;;;;;;17.39;86.81;99001.41;124852;1093;64395;-82
2021/08/11 01:41:32;;;;;;;9.17;7.43;;;;;;;17.38;86.78;99000.56;124866;1093;64242;-83
2021/08/11 01:43:59;;;;;;;10.20;8.00;;;;;;;17.36;86.67;98997.16;124890;1093;64246;-83
2021/08/11 01:46:29;;;;;;;9.87;7.60;;;;;;;17.34;86.92;98994.59;124854;1093;64262;-82
2021/08/11 01:48:59;;;;;;;8.45;7.40;;;;;;;17.29;86.68;98998.72;124925;1093;64283;-83
2021/08/11 01:51:27;;;;;;;10.97;8.97;;;;;;;17.24;86.99;98996.45;124926;1092;64268;-82
2021/08/11 01:53:53;;;;;;;10.60;8.57;;;;;;;17.22;87.24;98993.08;124879;1093;64188;-82
2021/08/11 01:56:21;;;;;;;10.00;7.97;;;;;;;17.24;87.12;99006.39;124880;1093;64271;-82
2021/08/11 01:58:49;;;;;;;11.50;8.00;;;;;;;17.24;87.13;99001.84;124856;1090;64335;-82
2021/08/11 02:01:15;;;;;;;10.70;7.90;;;;;;;17.15;86.83;99008.11;124884;1092;64396;-81
2021/08/11 02:03:44;;;;;;;12.60;8.93;;;;;;;17.11;87.27;99004.88;124833;1093;64284;-81
2021/08/11 02:06:11;;;;;;;10.33;8.27;;;;;;;17.11;87.50;99004.88;124858;1093;64283;-81
2021/08/11 02:08:43;;;;;;;9.10;7.57;;;;;;;17.13;87.44;99006.55;124884;1093;64225;-81
2021/08/11 02:11:12;;;;;;;11.83;7.80;;;;;;;17.10;87.50;99000.46;124920;1093;64316;-81
2021/08/11 02:13:40;;;;;;;10.45;8.65;;;;;;;17.07;87.79;98989.98;124962;1093;64271;-81
2021/08/11 02:16:07;;;;;;;12.43;7.77;;;;;;;17.05;88.22;98997.34;124896;1093;64266;-81
2021/08/11 02:18:33;;;;;;;11.10;7.90;;;;;;;17.05;88.15;98994.66;124926;1093;64241;-81
2021/08/11 02:21:00;;;;;;;9.87;8.07;;;;;;;17.09;88.03;98997.93;124939;1092;64268;-81
2021/08/11 02:23:27;;;;;;;10.20;7.50;;;;;;;17.08;87.78;98994.36;124856;1093;64322;-81
2021/08/11 02:26:13;;;;;;;8.57;7.70;;;;;;;17.05;88.04;98999.20;124978;1092;64383;-81
2021/08/11 02:28:57;;;;;;;9.53;7.70;;;;;;;16.92;87.99;99001.34;124960;1093;64287;-81
2021/08/11 02:31:46;;;;;;;7.87;6.93;;;;;;;16.77;88.01;99008.95;124941;1093;64287;-81
2021/08/11 02:34:32;;;;;;;8.57;7.53;;;;;;;16.72;87.84;99014.78;124857;1093;64275;-81
2021/08/11 02:37:06;;;;;;;6.83;6.10;;;;;;;16.70;88.29;99026.67;124916;1093;64217;-81
2021/08/11 02:39:46;;;;;;;8.73;6.43;;;;;;;16.67;87.92;99025.95;124949;1093;64241;-81
2021/08/11 02:42:27;;;;;;;12.25;7.98;;;;;;;16.67;88.06;99022.42;124854;1093;64309;-81
2021/08/11 02:44:58;;;;;;;9.47;7.90;;;;;;;16.63;87.94;99024.52;124892;1093;64297;-81
2021/08/11 02:47:26;;;;;;;11.87;8.83;;;;;;;16.62;88.42;99024.69;124924;1093;64377;-81
2021/08/11 02:49:54;;;;;;;10.83;8.50;;;;;;;16.62;88.67;99017.45;124902;1093;64335;-81
2021/08/11 02:52:23;;;;;;;9.33;7.90;;;;;;;16.61;88.43;99026.53;124890;1093;64226;-81
2021/08/11 02:54:51;;;;;;;10.83;8.30;;;;;;;16.60;89.02;99027.50;124958;1093;64436;-81
2021/08/11 02:57:19;;;;;;;12.90;9.83;;;;;;;16.58;88.95;99023.25;124940;1093;64223;-81
2021/08/11 02:59:46;;;;;;;12.23;9.70;;;;;;;16.58;89.14;99026.78;124882;1093;64245;-81
2021/08/11 03:02:13;;;;;;;15.27;10.43;;;;;;;16.59;89.16;99035.73;124882;1093;64373;-81
2021/08/11 03:04:40;;;;;;;12.83;10.03;;;;;;;16.59;89.16;99049.19;124937;1093;64415;-81
2021/08/11 03:07:07;;;;;;;11.40;9.93;;;;;;;16.58;89.15;99047.47;124902;1093;64300;-81
2021/08/11 03:09:34;;;;;;;13.43;9.70;;;;;;;16.56;89.19;99053.00;124834;1093;64306;-81
2021/08/11 03:12:01;;;;;;;13.85;9.95;;;;;;;16.56;89.25;99046.75;124909;1093;64303;-81
2021/08/11 03:14:28;;;;;;;14.53;10.33;;;;;;;16.56;89.39;99052.13;124890;1093;64299;-81
2021/08/11 03:16:55;;;;;;;11.73;10.53;;;;;;;16.54;89.59;99051.44;124942;1093;64267;-81
2021/08/11 03:19:21;;;;;;;11.00;9.40;;;;;;;16.55;89.55;99042.37;124863;1093;64273;-81
2021/08/11 03:21:48;;;;;;;10.87;8.97;;;;;;;16.56;89.48;99038.67;124880;1093;64357;-81
2021/08/11 03:24:15;;;;;;;11.20;9.30;;;;;;;16.46;89.12;99042.22;124950;1093;64267;-81
2021/08/11 03:26:41;;;;;;;9.10;7.63;;;;;;;16.35;89.11;99046.84;124912;1093;64296;-81
2021/08/11 03:29:07;;;;;;;10.93;9.07;;;;;;;16.31;89.01;99048.98;124946;1093;64275;-81
2021/08/11 03:31:34;;;;;;;12.23;10.13;;;;;;;16.32;89.65;99053.35;124884;1093;64273;-81
2021/08/11 03:34:00;;;;;;;10.93;9.83;;;;;;;16.32;89.54;99060.58;124925;1092;64297;-81
2021/08/11 03:36:27;;;;;;;11.07;9.70;;;;;;;16.31;89.92;99048.98;124825;1091;64275;-81
2021/08/11 03:38:54;;;;;;;10.10;9.10;;;;;;;16.33;90.07;99057.77;124903;1093;64431;-82
2021/08/11 03:41:21;;;;;;;11.55;10.10;;;;;;;16.35;89.95;99057.61;124902;1093;64418;-80
2021/08/11 03:43:48;;;;;;;10.50;9.40;;;;;;;16.38;90.10;99055.52;124866;1093;64287;-80
2021/08/11 03:46:14;;;;;;;11.37;9.60;;;;;;;16.46;89.69;99057.52;124887;1093;64191;-80
2021/08/11 03:48:41;;;;;;;11.07;8.97;;;;;;;16.46;89.68;99052.98;124911;1093;64340;-80
2021/08/11 03:51:07;;;;;;;10.17;8.80;;;;;;;16.46;89.30;99052.13;124853;1093;64742;-80
2021/08/11 03:53:34;;;;;;;10.77;8.80;;;;;;;16.48;89.39;99044.75;124856;1093;66061;-81
2021/08/11 03:56:01;;;;;;;10.97;9.07;;;;;;;16.76;89.88;99047.63;124907;1093;64328;-81
2021/08/11 03:58:27;;;;;;;10.95;9.05;;;;;;;17.16;88.92;99041.27;124896;1093;64284;-81
2021/08/11 04:00:53;;;;;;;11.57;8.33;;;;;;;17.49;88.02;99040.80;124880;1093;64274;-81
2021/08/11 04:03:20;;;;;;;9.67;8.73;;;;;;;17.77;87.33;99044.41;124881;1093;64260;-81
2021/08/11 04:05:47;;;;;;;11.90;9.13;;;;;;;18.13;87.10;99041.02;124872;1093;64300;-81
2021/08/11 04:08:14;;;;;;;11.00;9.03;;;;;;;18.42;86.26;99043.55;124963;1093;64255;-81
2021/08/11 04:10:45;;;;;;;10.13;8.93;;;;;;;18.77;85.46;99050.01;124881;1093;64194;-81
2021/08/11 04:13:16;;;;;;;9.37;8.40;;;;;;;19.06;84.41;99058.75;124886;1093;64287;-81
2021/08/11 04:15:43;;;;;;;11.75;10.00;;;;;;;19.31;83.77;99064.34;124893;1093;64285;-81
2021/08/11 04:18:09;;;;;;;15.33;13.93;;;;;;;19.52;83.65;99072.11;124875;1093;64330;-81
2021/08/11 04:20:37;;;;;;;12.83;10.30;;;;;;;19.67;83.20;99067.02;124867;1093;64268;-81
2021/08/11 04:23:05;;;;;;;15.37;10.10;;;;;;;19.62;82.77;99072.02;124900;1092;64211;-81
2021/08/11 04:25:35;;;;;;;10.53;9.57;;;;;;;19.25;83.36;99073.09;124892;1093;64294;-82
2021/08/11 04:28:06;;;;;;;11.27;10.10;;;;;;;19.05;84.11;99069.70;124852;1093;64328;-80
2021/08/11 04:30:33;;;;;;;12.70;10.43;;;;;;;19.05;84.14;99061.59;124899;1093;64268;-83
2021/08/11 04:32:59;;;;;;;11.50;10.43;;;;;;;19.62;83.06;99063.91;124939;1093;64290;-82
2021/08/11 04:35:26;;;;;;;12.57;9.60;;;;;;;20.05;82.18;99075.67;124913;1093;64369;-82
2021/08/11 04:37:53;;;;;;;10.67;9.57;;;;;;;20.46;80.88;99065.88;124869;1093;64287;-82
2021/08/11 04:40:19;;;;;;;10.03;9.03;;;;;;;20.74;80.29;99073.76;124810;1093;64315;-85
2021/08/11 04:42:46;;;;;;;10.73;9.70;;;;;;;20.98;79.30;99071.08;124954;1093;64213;-82
2021/08/11 04:45:13;;;;;;;10.40;9.37;;;;;;;21.28;78.58;99073.33;124949;1093;64287;-81
2021/08/11 04:47:39;;;;;;;10.57;8.60;;;;;;;21.55;77.88;99066.73;124967;1093;64287;-80
2021/08/11 04:50:07;;;;;;;10.70;9.60;;;;;;;21.94;77.52;99069.55;124902;1093;64197;-80
2021/08/11 04:52:34;;;;;;;11.30;9.83;;;;;;;22.34;76.32;99074.00;124942;1093;64271;-80
2021/08/11 04:55:02;;;;;;;9.60;8.60;;;;;;;22.74;75.48;99065.83;124939;1093;64434;-79
2021/08/11 04:57:29;;;;;;;9.90;9.03;;;;;;;23.12;75.00;99072.23;124970;1091;64393;-81
2021/08/11 04:59:56;;;;;;;9.87;8.80;;;;;;;23.50;73.85;99066.81;124964;1093;64453;-81
2021/08/11 05:02:22;;;;;;;11.37;8.77;;;;;;;23.73;72.33;99063.23;124837;1093;64254;-81
2021/08/11 05:04:49;;;;;;;12.60;9.67;;;;;;;23.83;72.07;99069.27;124885;1093;64244;-81
2021/08/11 05:07:16;;;;;;;12.10;10.93;;;;;;;24.05;71.72;99064.76;124855;1093;64370;-81
2021/08/11 05:09:42;;;;;;;12.05;9.70;;;;;;;24.18;70.95;99064.10;124858;1093;64657;-80
2021/08/11 05:12:09;;;;;;;9.37;8.37;;;;;;;24.35;70.35;99051.95;124872;1093;64284;-81
2021/08/11 05:14:36;;;;;;;8.90;8.00;;;;;;;24.53;69.93;99062.48;124862;1093;64330;-81
2021/08/11 05:17:02;;;;;;;8.70;7.83;;;;;;;24.72;69.58;99066.47;124884;1093;64319;-81
2021/08/11 05:19:29;;;;;;;8.90;8.00;;;;;;;24.91;68.98;99060.42;124893;1093;64316;-81
2021/08/11 05:21:55;;;;;;;13.75;8.90;;;;;;;25.02;68.54;99069.97;124873;1093;64272;-81
2021/08/11 05:24:22;;;;;;;9.30;8.23;;;;;;;25.13;67.50;99069.44;124876;1093;64222;-81
2021/08/11 05:26:48;;;;;;;10.53;8.87;;;;;;;25.29;67.04;99067.53;124877;1093;64299;-81
2021/08/11 05:29:24;;;;;;;10.67;8.30;;;;;;;25.37;67.46;99072.84;124934;1093;64444;-80
2021/08/11 05:31:50;;;;;;;7.97;7.17;;;;;;;25.49;66.42;99074.02;124881;1093;64321;-81
2021/08/11 05:34:17;;;;;;;9.47;7.20;;;;;;;25.51;65.96;99081.98;124881;1093;64274;-81
2021/08/11 05:36:43;;;;;;;9.53;7.40;;;;;;;25.56;65.69;99079.51;124960;1093;64414;-81
2021/08/11 05:39:09;;;;;;;9.50;6.57;;;;;;;25.69;65.12;99085.07;124883;1092;64287;-81
2021/08/11 05:41:36;;;;;;;9.40;7.20;;;;;;;25.80;64.52;99089.14;124842;1093;64386;-81
2021/08/11 05:44:04;;;;;;;8.70;7.18;;;;;;;25.77;63.96;99090.38;124919;1093;64370;-81
2021/08/11 05:46:31;;;;;;;8.93;6.77;;;;;;;25.81;64.01;99088.12;124897;1093;64321;-81
2021/08/11 05:48:57;;;;;;;8.27;6.83;;;;;;;25.92;63.68;99092.22;124893;1093;64287;-81
2021/08/11 05:51:24;;;;;;;8.13;7.07;;;;;;;25.97;62.98;99089.73;124883;1093;64360;-81
2021/08/11 05:53:50;;;;;;;8.10;6.90;;;;;;;26.09;63.33;99098.20;124837;1093;64188;-81
2021/08/11 05:56:17;;;;;;;8.47;6.53;;;;;;;26.17;62.51;99096.17;124906;1093;64395;-82
2021/08/11 05:58:43;;;;;;;7.73;6.90;;;;;;;26.07;60.86;99087.49;124857;1092;64291;-81
2021/08/11 06:01:09;;;;;;;7.67;6.83;;;;;;;25.96;61.93;99091.63;124916;1092;64223;-81
2021/08/11 06:03:36;;;;;;;8.07;6.80;;;;;;;26.02;62.30;99081.78;124869;1093;64271;-81
2021/08/11 06:06:03;;;;;;;7.57;6.50;;;;;;;26.27;62.20;99082.97;124875;1093;64551;-81
2021/08/11 06:08:31;;;;;;;10.40;7.20;;;;;;;26.32;61.86;99090.56;124903;1093;64354;-81
2021/08/11 06:10:58;;;;;;;9.07;6.57;;;;;;;26.43;61.61;99087.25;124858;1093;64268;-81
2021/08/11 06:13:24;;;;;;;8.27;6.87;;;;;;;26.55;60.89;99083.99;124922;1093;64408;-81
2021/08/11 06:15:51;;;;;;;9.77;6.97;;;;;;;26.46;60.82;99081.41;124922;1092;65441;-81
2021/08/11 06:18:18;;;;;;;9.03;6.37;;;;;;;26.65;61.30;99071.63;124922;1092;64401;-81
2021/08/11 06:20:47;;;;;;;7.10;6.13;;;;;;;26.81;60.70;99075.88;124932;1092;64300;-81
2021/08/11 06:23:13;;;;;;;7.33;6.10;;;;;;;26.84;59.71;99078.20;124940;1093;64394;-81
2021/08/11 06:25:40;;;;;;;9.57;6.93;;;;;;;26.88;59.48;99084.09;124940;1093;64271;-81
2021/08/11 06:28:06;;;;;;;8.97;6.07;;;;;;;26.85;59.68;99084.52;124933;1092;64468;-81
2021/08/11 06:30:33;;;;;;;12.30;6.17;;;;;;;26.91;59.64;99087.28;124910;1093;64265;-81
2021/08/11 06:32:59;;;;;;;7.57;6.70;;;;;;;27.02;59.59;99085.83;124922;1093;64444;-81
2021/08/11 06:35:26;;;;;;;6.23;5.70;;;;;;;27.05;59.30;99081.84;124852;1093;64287;-82
2021/08/11 06:37:52;;;;;;;9.47;6.43;;;;;;;26.88;58.97;99087.70;124930;1093;64393;-82
2021/08/11 06:40:21;;;;;;;8.53;5.83;;;;;;;26.80;58.77;99081.55;124970;1093;64275;-82
2021/08/11 06:42:49;;;;;;;6.87;5.27;;;;;;;26.75;58.59;99087.63;124852;1093;64278;-82
2021/08/11 06:45:15;;;;;;;8.70;5.20;;;;;;;26.71;58.41;99084.47;124850;1093;64307;-82
2021/08/11 06:47:42;;;;;;;6.93;5.30;;;;;;;26.77;58.65;99095.63;124894;1093;64274;-82
2021/08/11 06:50:10;;;;;;;5.97;5.33;;;;;;;26.90;58.40;99084.73;124882;1091;64277;-82
2021/08/11 06:52:37;;;;;;;7.63;5.40;;;;;;;26.76;57.48;99105.73;124969;1093;64300;-82
2021/08/11 06:55:14;;;;;;;8.17;5.10;;;;;;;26.73;58.14;99091.64;124894;1093;64776;-82
2021/08/11 06:57:41;;;;;;;4.83;4.27;;;;;;;26.65;57.71;99095.39;124919;1093;64422;-82
2021/08/11 07:00:09;;;;;;;6.23;4.57;;;;;;;26.67;57.93;99099.61;124864;1093;64287;-82
2021/08/11 07:02:36;;;;;;;7.27;4.40;;;;;;;26.78;57.55;99106.38;124873;1093;64188;-82
2021/08/11 07:05:05;;;;;;;7.27;4.70;;;;;;;26.75;55.90;99092.25;124826;1093;64357;-82
2021/08/11 07:07:31;;;;;;;5.40;4.30;;;;;;;26.06;56.28;99096.71;124859;1092;64323;-82
2021/08/11 07:09:58;;;;;;;6.35;5.10;;;;;;;25.51;56.77;99103.81;124903;1093;64415;-82
2021/08/11 07:12:25;;;;;;;5.90;4.43;;;;;;;25.16;57.44;99104.53;124859;1093;64276;-82
2021/08/11 07:14:52;;;;;;;6.73;5.10;;;;;;;24.81;58.65;99108.95;124906;1093;64402;-82
2021/08/11 07:17:20;;;;;;;7.25;4.80;;;;;;;24.82;59.73;99105.17;124855;1093;64306;-82
2021/08/11 07:19:46;;;;;;;7.03;4.57;;;;;;;24.78;59.86;99103.89;124843;1093;64310;-81
2021/08/11 07:22:13;;;;;;;6.97;4.80;;;;;;;24.74;60.11;99105.30;124872;1093;64354;-84
2021/08/11 07:24:39;;;;;;;5.63;4.53;;;;;;;24.71;60.22;99109.25;124865;1093;64313;-82
2021/08/11 07:27:06;;;;;;;10.67;5.10;;;;;;;24.62;60.27;99113.13;124959;1093;64391;-83
2021/08/11 07:29:33;;;;;;;5.03;4.00;;;;;;;24.56;60.00;99115.75;124902;1092;64271;-83
2021/08/11 07:31:59;;;;;;;4.80;2.90;;;;;;;24.52;58.82;99118.02;124860;1093;64441;-82
2021/08/11 07:34:26;;;;;;;4.10;2.47;;;;;;;24.49;58.44;99121.13;124954;1093;64246;-82
2021/08/11 07:36:52;;;;;;;3.10;2.80;;;;;;;24.51;57.53;99119.91;124831;1091;64367;-83
2021/08/11 07:39:19;;;;;;;3.60;2.33;;;;;;;24.30;55.92;99115.19;124867;1093;64290;-83
2021/08/11 07:41:46;;;;;;;2.97;2.60;;;;;;;24.19;56.94;99120.25;124849;1093;64366;-83
2021/08/11 07:44:12;;;;;;;2.97;2.47;;;;;;;24.09;55.85;99117.79;124888;1093;64434;-83
2021/08/11 07:46:39;;;;;;;3.30;2.60;;;;;;;23.93;55.76;99118.80;124900;1093;64798;-83
2021/08/11 07:49:05;;;;;;;3.73;2.33;;;;;;;23.94;57.24;99120.52;124959;1092;64308;-81
2021/08/11 07:51:32;;;;;;;5.40;2.70;;;;;;;24.01;56.80;99123.33;124941;1093;64386;-81
2021/08/11 07:53:58;;;;;;;4.20;2.67;;;;;;;23.91;56.42;99129.06;124851;1093;64289;-83
2021/08/11 07:56:24;;;;;;;4.57;3.17;;;;;;;23.94;57.07;99130.56;124851;1093;64309;-81
2021/08/11 07:58:51;;;;;;;4.70;2.80;;;;;;;23.92;55.97;99132.63;124899;1093;64363;-82
2021/08/11 08:01:18;;;;;;;3.73;2.63;;;;;;;23.94;57.10;99136.84;124854;1092;64265;-81
2021/08/11 08:03:44;;;;;;;3.73;2.80;;;;;;;23.98;56.59;99140.03;124901;1093;64220;-81
2021/08/11 08:06:11;;;;;;;4.13;3.17;;;;;;;24.02;57.05;99125.88;124840;1093;64390;-81
2021/08/11 08:08:37;;;;;;;3.03;2.60;;;;;;;24.15;57.39;99122.51;124848;1093;64338;-83
2021/08/11 08:11:04;;;;;;;4.47;2.67;;;;;;;24.24;57.37;99126.81;124894;1093;64265;-82
2021/08/11 08:13:30;;;;;;;3.37;2.50;;;;;;;24.39;57.95;99129.55;124865;1093;64390;-82
2021/08/11 08:15:57;;;;;;;3.40;2.97;;;;;;;24.24;53.72;99125.98;124888;1093;64187;-83
2021/08/11 08:18:23;;;;;;;5.70;2.63;;;;;;;24.00;54.80;99127.09;124814;1093;64266;-81
2021/08/11 08:20:51;;;;;;;4.53;2.77;;;;;;;24.06;56.16;99126.34;124849;1093;64284;-81
2021/08/11 08:23:19;;;;;;;4.97;2.57;;;;;;;24.14;55.65;99134.41;124838;1093;64306;-81
2021/08/11 08:25:47;;;;;;;3.10;2.63;;;;;;;24.20;55.67;99128.24;124909;1093;64284;-81
2021/08/11 08:28:14;;;;;;;2.80;2.60;;;;;;;24.32;56.00;99129.44;124982;1093;64330;-80
2021/08/11 08:30:42;;;;;;;4.50;3.10;;;;;;;24.38;55.50;99125.15;124916;1093;64199;-81
2021/08/11 08:33:09;;;;;;;4.30;2.60;;;;;;;24.43;54.69;99127.28;124886;1093;64283;-82
2021/08/11 08:35:35;;;;;;;3.43;3.13;;;;;;;24.40;54.19;99128.51;124872;1093;64287;-82
2021/08/11 08:38:02;;;;;;;3.33;3.03;;;;;;;24.35;54.08;99128.22;124872;1093;64276;-82
2021/08/11 08:40:34;;;;;;;5.20;2.90;;;;;;;24.39;55.62;99123.27;124847;1093;64287;-82
2021/08/11 08:43:01;;;;;;;4.77;2.80;;;;;;;24.53;54.86;99133.33;124851;1093;64316;-85
2021/08/11 08:45:28;;;;;;;3.87;3.07;;;;;;;24.58;54.68;99130.05;124839;1093;64440;-80
2021/08/11 08:47:55;;;;;;;3.70;3.00;;;;;;;24.62;55.02;99134.93;124835;1093;64335;-81
2021/08/11 08:50:22;;;;;;;3.70;3.10;;;;;;;24.69;55.19;99135.00;124837;1093;64251;-82
2021/08/11 08:52:50;;;;;;;3.80;3.10;;;;;;;24.79;54.25;99131.98;124897;1093;64256;-81
2021/08/11 08:55:18;;;;;;;3.67;2.80;;;;;;;24.73;54.36;99128.14;124910;1093;64404;-81
2021/08/11 08:57:44;;;;;;;3.30;2.93;;;;;;;24.77;54.68;99128.60;124856;1093;64264;-81
2021/08/11 09:00:12;;;;;;;4.53;2.90;;;;;;;24.82;54.38;99123.42;124898;1093;64360;-81
2021/08/11 09:02:40;;;;;;;4.27;3.43;;;;;;;24.83;54.06;99116.92;124863;1093;64450;-81
2021/08/11 09:05:09;;;;;;;3.43;3.00;;;;;;;24.88;53.17;99118.06;124854;1092;64273;-82
2021/08/11 09:07:46;;;;;;;3.73;3.03;;;;;;;24.82;52.21;99118.81;124908;1093;64191;-81
2021/08/11 09:10:36;;;;;;;6.77;3.13;;;;;;;24.76;52.45;99114.13;124935;1093;64284;-81
2021/08/11 09:13:07;;;;;;;4.23;3.45;;;;;;;24.64;52.02;99126.55;124859;1093;64398;-82
2021/08/11 09:15:38;;;;;;;3.40;3.13;;;;;;;24.66;53.38;99119.03;124845;1093;64390;-81
2021/08/11 09:18:17;;;;;;;5.37;3.50;;;;;;;24.90;53.80;99115.97;124862;1093;64185;-81
2021/08/11 09:21:11;;;;;;;5.85;3.38;;;;;;;25.08;54.13;99118.27;124872;1093;64280;-81
2021/08/11 09:23:41;;;;;;;4.00;3.20;;;;;;;25.29;54.02;99122.09;124848;1093;64379;-83
2021/08/11 09:26:10;;;;;;;4.93;4.23;;;;;;;25.32;53.88;99122.53;124921;1093;64359;-81
2021/08/11 09:28:39;;;;;;;5.77;3.90;;;;;;;25.36;52.86;99117.55;124944;1093;64290;-80
2021/08/11 09:31:32;;;;;;;4.57;3.47;;;;;;;25.28;52.40;99121.25;124919;1093;64291;-80
2021/08/11 09:34:07;;;;;;;4.63;3.60;;;;;;;25.35;54.01;99122.14;124863;1093;64275;-81
2021/08/11 09:36:48;;;;;;;4.03;3.63;;;;;;;25.56;54.50;99114.98;124827;1093;64242;-81
2021/08/11 09:39:18;;;;;;;4.00;3.10;;;;;;;25.70;53.79;99124.13;124896;1093;64399;-82
2021/08/11 09:42:01;;;;;;;4.35;3.70;;;;;;;25.79;54.15;99120.23;124984;1093;64287;-81
2021/08/11 09:44:28;;;;;;;4.25;3.60;;;;;;;25.96;53.56;99123.53;124863;1093;64271;-81
2021/08/11 09:47:11;;;;;;;3.73;3.30;;;;;;;26.01;52.81;99124.64;124828;1092;64284;-81
2021/08/11 09:49:37;;;;;;;3.40;3.10;;;;;;;26.16;53.97;99120.95;124866;1090;64408;-81
2021/08/11 09:52:04;;;;;;;5.50;3.43;;;;;;;26.38;53.54;99116.23;124903;1093;64348;-81
2021/08/11 09:54:32;;;;;;;5.57;3.57;;;;;;;26.54;53.36;99115.09;124903;1093;64322;-81
2021/08/11 09:56:59;;;;;;;7.13;3.37;;;;;;;26.55;52.24;99123.09;124886;1093;64264;-81
2021/08/11 09:59:26;;;;;;;4.13;3.20;;;;;;;26.46;52.25;99116.94;124918;1093;64223;-81
2021/08/11 10:02:16;;;;;;;7.40;4.17;;;;;;;26.50;52.45;99122.83;124833;1091;64267;-81
2021/08/11 10:04:43;;;;;;;7.73;3.97;;;;;;;26.57;50.93;99111.94;124886;1093;64386;-82
2021/08/11 10:07:09;;;;;;;4.40;3.80;;;;;;;26.42;50.40;99123.84;124918;1093;64203;-82
2021/08/11 10:09:36;;;;;;;4.83;3.10;;;;;;;26.50;51.50;99120.94;124859;1093;64271;-82
2021/08/11 10:12:03;;;;;;;4.67;3.43;;;;;;;26.74;51.99;99118.76;124909;1093;64260;-81
2021/08/11 10:14:31;;;;;;;5.50;3.20;;;;;;;26.94;50.53;99127.05;124862;1093;64156;-83
2021/08/11 10:17:00;;;;;;;6.43;3.70;;;;;;;26.95;49.45;99112.31;124955;1093;64268;-82
2021/08/11 10:19:32;;;;;;;4.35;3.95;;;;;;;26.90;50.43;99123.86;124992;1093;64309;-82
2021/08/11 10:22:19;;;;;;;5.00;3.30;;;;;;;26.89;48.86;99126.82;124940;1093;64268;-82
2021/08/11 10:24:46;;;;;;;5.15;3.00;;;;;;;26.64;49.08;99124.59;125001;1093;64265;-84
2021/08/11 10:27:16;;;;;;;4.23;3.30;;;;;;;26.90;50.08;99120.30;124957;1093;64294;-81
2021/08/11 10:29:43;;;;;;;3.33;3.00;;;;;;;27.28;49.21;99111.60;124939;1093;64396;-84
2021/08/11 10:32:10;;;;;;;3.63;3.20;;;;;;;27.50;47.89;99118.56;124890;1093;64194;-84
2021/08/11 10:34:39;;;;;;;4.37;3.50;;;;;;;27.55;46.40;99118.78;124886;1093;64338;-82
2021/08/11 10:37:06;;;;;;;4.77;3.97;;;;;;;27.52;47.19;99121.94;124959;1093;64219;-82
2021/08/11 10:39:33;;;;;;;3.57;3.27;;;;;;;27.71;45.32;99114.78;124864;1093;64397;-80
2021/08/11 10:42:11;;;;;;;4.50;3.30;;;;;;;27.57;46.36;99113.95;124834;1093;64409;-80
2021/08/11 10:44:38;;;;;;;4.53;3.37;;;;;;;27.50;47.01;99112.25;124894;1093;64287;-80
2021/08/11 10:47:07;;;;;;;4.20;3.80;;;;;;;27.31;46.02;99122.13;124839;1093;64334;-81
2021/08/11 10:49:52;;;;;;;5.93;3.88;;;;;;;27.06;46.76;99119.91;124931;1093;64274;-80
2021/08/11 10:52:19;;;;;;;4.85;3.50;;;;;;;26.92;47.55;99113.56;124872;1093;64388;-80
2021/08/11 10:54:54;;;;;;;5.95;3.20;;;;;;;26.85;47.80;99118.16;124852;1093;64402;-82
2021/08/11 10:57:38;;;;;;;4.40;3.50;;;;;;;26.69;48.45;99113.06;124947;1093;64267;-82
2021/08/11 11:00:06;;;;;;;4.60;4.00;;;;;;;26.60;48.32;99117.87;124834;1092;64161;-82
2021/08/11 11:02:39;;;;;;;6.40;3.67;;;;;;;26.60;48.16;99115.13;124870;1093;64287;-82
2021/08/11 11:05:07;;;;;;;5.77;3.93;;;;;;;26.79;48.50;99121.73;124847;1093;64412;-80
2021/08/11 11:07:34;;;;;;;7.53;4.20;;;;;;;27.21;48.16;99113.47;124892;1093;64249;-81
2021/08/11 11:10:28;;;;;;;6.50;3.87;;;;;;;27.40;46.96;99114.55;124867;1093;64263;-81
2021/08/11 11:12:54;;;;;;;7.27;3.73;;;;;;;27.50;47.38;99113.09;124848;1093;64211;-81
2021/08/11 11:15:51;;;;;;;5.40;3.77;;;;;;;27.84;46.69;99104.92;124919;1093;64313;-81
2021/08/11 11:18:20;;;;;;;5.73;3.67;;;;;;;28.06;46.46;99103.61;124844;1093;64391;-81
2021/08/11 11:20:57;;;;;;;5.23;3.67;;;;;;;28.25;46.58;99101.88;124936;1093;64248;-81
2021/08/11 11:23:37;;;;;;;4.87;3.93;;;;;;;28.23;46.23;99095.80;124901;1093;64247;-81
2021/08/11 11:26:11;;;;;;;4.93;3.70;;;;;;;28.00;44.88;99099.83;124890;1092;64284;-81
2021/08/11 11:29:02;;;;;;;4.83;3.40;;;;;;;27.67;44.12;99098.98;124884;1093;64280;-81
2021/08/11 11:31:32;;;;;;;4.07;3.63;;;;;;;27.16;44.03;99092.17;124893;1093;64306;-81